Wetterdaten: aktuell Samstag, 17.04.2021 14:10
Datum Zeit Temp. A. Feuchte A. Luftdruck Regen Wind Richtung Richtung Sonnenschein Solar Taupunkt Windchill Windben
17.04.2021 14:10 8,6 C 65 % 1022,3 hPa 0,0 l/m 3,6 km/h (1 Bft) W-SW 255 5 min 595 W/m 2,4 C 8,6 C 9,7 km/h (2 Bft)
17.04.2021 14:05 8,5 C 65 % 1022,2 hPa 0,0 l/m 5,5 km/h (2 Bft) W 273 5 min 759 W/m 2,3 C 8,5 C 11,3 km/h (2 Bft)
17.04.2021 14:00 8,4 C 66 % 1022,3 hPa 0,0 l/m 5,2 km/h (1 Bft) W-SW 248 5 min 426 W/m 2,4 C 8,4 C 12,9 km/h (3 Bft)
17.04.2021 13:55 8,4 C 66 % 1022,5 hPa 0,0 l/m 2,9 km/h (1 Bft) W-NW 286 5 min 336 W/m 2,4 C 8,4 C 9,7 km/h (2 Bft)
17.04.2021 13:50 8,4 C 67 % 1022,5 hPa 0,0 l/m 3,4 km/h (1 Bft) W-SW 257 5 min 339 W/m 2,6 C 8,4 C 8,0 km/h (2 Bft)
17.04.2021 13:45 8,4 C 66 % 1022,5 hPa 0,0 l/m 3,6 km/h (1 Bft) W 273 5 min 355 W/m 2,4 C 8,4 C 9,7 km/h (2 Bft)
17.04.2021 13:40 8,3 C 68 % 1022,6 hPa 0,0 l/m 4,1 km/h (1 Bft) N-NW 337 5 min 499 W/m 2,7 C 8,3 C 9,7 km/h (2 Bft)
17.04.2021 13:35 8,1 C 70 % 1022,6 hPa 0,0 l/m 3,7 km/h (1 Bft) W 269 5 min 571 W/m 3,0 C 8,1 C 9,7 km/h (2 Bft)
17.04.2021 13:30 7,8 C 69 % 1022,7 hPa 0,0 l/m 4,1 km/h (1 Bft) N-NW 337 5 min 836 W/m 2,5 C 7,8 C 11,3 km/h (2 Bft)
17.04.2021 13:25 7,4 C 73 % 1022,7 hPa 0,0 l/m 3,6 km/h (1 Bft) N-NW 327 5 min 710 W/m 2,9 C 7,4 C 14,5 km/h (3 Bft)
17.04.2021 13:20 7,2 C 73 % 1022,8 hPa 0,0 l/m 3,9 km/h (1 Bft) W-NW 296 5 min 575 W/m 2,7 C 7,2 C 11,3 km/h (2 Bft)
17.04.2021 13:15 6,9 C 75 % 1022,8 hPa 0,0 l/m 2,6 km/h (1 Bft) W 272 5 min 603 W/m 2,8 C 6,9 C 6,4 km/h (2 Bft)
17.04.2021 13:10 6,6 C 75 % 1022,9 hPa 0,0 l/m 3,1 km/h (1 Bft) W-NW 287 5 min 430 W/m 2,5 C 6,6 C 6,4 km/h (2 Bft)
17.04.2021 13:05 6,4 C 76 % 1022,9 hPa 0,0 l/m 4,0 km/h (1 Bft) W-NW 286 5 min 327 W/m 2,5 C 6,4 C 9,7 km/h (2 Bft)
17.04.2021 13:00 6,2 C 76 % 1023,0 hPa 0,0 l/m 3,0 km/h (1 Bft) W-SW 241 5 min 342 W/m 2,3 C 6,2 C 9,7 km/h (2 Bft)
17.04.2021 12:55 6,1 C 77 % 1023,0 hPa 0,0 l/m 1,2 km/h (1 Bft) W 277 5 min 358 W/m 2,4 C 6,1 C 6,4 km/h (2 Bft)
17.04.2021 12:50 5,8 C 77 % 1023,0 hPa 0,0 l/m 2,7 km/h (1 Bft) W 281 5 min 351 W/m 2,1 C 5,8 C 11,3 km/h (2 Bft)
17.04.2021 12:45 5,7 C 78 % 1023,1 hPa 0,0 l/m 2,7 km/h (1 Bft) N 355 5 min 324 W/m 2,2 C 5,7 C 6,4 km/h (2 Bft)
17.04.2021 12:40 5,4 C 79 % 1023,1 hPa 0,0 l/m 2,8 km/h (1 Bft) NW 306 5 min 344 W/m 2,1 C 5,4 C 6,4 km/h (2 Bft)
17.04.2021 12:35 5,2 C 79 % 1023,2 hPa 0,0 l/m 3,1 km/h (1 Bft) W 265 5 min 314 W/m 1,9 C 5,2 C 6,4 km/h (2 Bft)
17.04.2021 12:30 5,0 C 80 % 1023,3 hPa 0,0 l/m 2,0 km/h (1 Bft) NW 319 5 min 282 W/m 1,8 C 5,0 C 4,8 km/h (1 Bft)
_ Min-Zeit 06:55 16:26 14:05 - 20:15 - - - - 06:15 06:55 20:15
Minimum _ -0,7 C 45 % 1022,2 hPa - 0,0 km/h (0 Bft) - - - - -3,4 C -0,7 C 0,0 km/h (0 Bft)
_ Max-Zeit 16:10 07:30 00:20 09:35 14:05 - - 16:26 13:30 13:35 16:10 13:25
Maximum _ 12,0 C 86 % 1024,9 hPa 0,3 l/m 5,5 km/h
W (2 Bft)
- - 6 min 836 W/m 3,0 C 12,0 C 14,5 km/h
W-SW (3 Bft)
Durchschnitt _ 5,6 C 65 % 1024,1 hPa #0,3 l/m 0,9 km/h (0 Bft) NO - #3:45 h 178 W/m -0,7 C 5,6 C 3,1 km/h (1 Bft)